Time;durP1;ratioP1;P1;durP2;ratioP2;P2;SDS_P1;SDS_P2;PMS_P1;PMS_P2;Temp;Humidity;BMP_temperature;BMP_pressure;BME280_temperature;BME280_humidity;BME280_pressure;Samples;Min_cycle;Max_cycle;Signal;HPM_P1;HPM_P2
2023/09/22 00:00:26;;;;;;;3.20;1.30;;;;;;;;;;4939563;29;20118;-81
2023/09/22 00:02:52;;;;;;;3.42;1.40;;;;;;;;;;4935346;29;20032;-81
2023/09/22 00:05:18;;;;;;;3.05;1.40;;;;;;;;;;4921406;29;20508;-79
2023/09/22 00:07:45;;;;;;;1.95;1.20;;;;;;;;;;4921485;29;20444;-85
2023/09/22 00:10:12;;;;;;;2.38;1.40;;;;;;;;;;4936988;29;20099;-85
2023/09/22 00:12:38;;;;;;;4.75;1.75;;;;;;;;;;4919974;29;20043;-83
2023/09/22 00:15:04;;;;;;;2.53;1.20;;;15.70;99.90;;;;;;4934851;29;20028;-83
2023/09/22 00:17:35;;;;;;;3.35;1.38;;;15.60;99.90;;;;;;4928210;29;20091;-82
2023/09/22 00:20:00;;;;;;;;;;;15.60;99.90;;;;;;4938024;23;20390;-82
2023/09/22 00:22:27;;;;;;;4.63;1.42;;;15.60;99.90;;;;;;4930410;28;19929;-84
2023/09/22 00:24:53;;;;;;;4.40;1.48;;;;;;;;;;4907459;29;20313;-84
2023/09/22 00:27:19;;;;;;;5.03;1.38;;;;;;;;;;4918996;29;20381;-83
2023/09/22 00:29:45;;;;;;;3.00;1.50;;;15.50;99.90;;;;;;4899360;29;20024;-85
2023/09/22 00:32:11;;;;;;;2.08;1.27;;;15.50;99.90;;;;;;4899234;29;20032;-82
2023/09/22 00:34:38;;;;;;;3.65;1.60;;;;;;;;;;4910317;29;20036;-85
2023/09/22 00:37:04;;;;;;;3.45;1.40;;;;;;;;;;4928972;29;20032;-85
2023/09/22 00:39:30;;;;;;;3.05;1.33;;;;;;;;;;4917416;29;20036;-85
2023/09/22 00:41:57;;;;;;;6.05;1.45;;;;;;;;;;4904522;29;21115;-83
2023/09/22 00:44:22;;;;;;;2.30;1.30;;;15.40;99.90;;;;;;4917670;29;20054;-83
2023/09/22 00:46:48;;;;;;;2.75;1.20;;;;;;;;;;4905283;29;20489;-82
2023/09/22 00:49:14;;;;;;;2.92;1.30;;;;;;;;;;4926618;29;20036;-85
2023/09/22 00:51:40;;;;;;;8.55;1.70;;;15.20;99.90;;;;;;4909737;29;20035;-84
2023/09/22 00:54:06;;;;;;;2.55;1.38;;;15.20;99.90;;;;;;4924940;29;20036;-85
2023/09/22 00:56:33;;;;;;;4.03;1.50;;;;;;;;;;4918607;29;22450;-83
2023/09/22 00:58:59;;;;;;;2.40;1.25;;;;;;;;;;4917376;29;20122;-83
2023/09/22 01:01:24;;;;;;;4.65;1.83;;;15.10;99.90;;;;;;4924537;29;20107;-83
2023/09/22 01:03:53;;;;;;;3.63;2.08;;;15.00;99.90;;;;;;4903883;29;20021;-86
2023/09/22 01:06:19;;;;;;;3.40;1.77;;;;;;;;;;4923120;29;20038;-84
2023/09/22 01:08:45;;;;;;;3.85;2.20;;;15.00;99.90;;;;;;4911437;29;20028;-83
2023/09/22 01:11:11;;;;;;;5.80;2.58;;;15.10;99.90;;;;;;4928537;29;20020;-84
2023/09/22 01:13:37;;;;;;;5.15;2.80;;;15.30;99.90;;;;;;4909251;29;20038;-83
2023/09/22 01:16:03;;;;;;;6.05;2.97;;;;;;;;;;4907255;29;20028;-83
2023/09/22 01:18:30;;;;;;;7.28;3.65;;;;;;;;;;4922978;29;20039;-85
2023/09/22 01:20:58;;;;;;;4.88;2.95;;;;;;;;;;4926166;29;20040;-82
2023/09/22 01:23:24;;;;;;;9.50;3.17;;;15.10;99.90;;;;;;4922836;29;20127;-82
2023/09/22 01:25:50;;;;;;;5.85;3.03;;;15.10;99.90;;;;;;4917675;29;20116;-82
2023/09/22 01:28:17;;;;;;;5.20;2.97;;;;;;;;;;4906355;29;20044;-79
2023/09/22 01:30:43;;;;;;;4.20;2.60;;;;;;;;;;4902842;29;20036;-82
2023/09/22 01:33:09;;;;;;;3.75;2.83;;;;;;;;;;4920387;29;20714;-84
2023/09/22 01:35:36;;;;;;;4.47;2.78;;;;;;;;;;4909206;29;20039;-80
2023/09/22 01:38:18;;;;;;;4.20;2.20;;;15.10;99.90;;;;;;4909358;29;20032;-84
2023/09/22 01:40:44;;;;;;;3.67;1.80;;;15.10;99.90;;;;;;4898893;29;20043;-85
2023/09/22 01:43:11;;;;;;;3.65;1.77;;;15.10;99.90;;;;;;4906068;29;20032;-84
2023/09/22 01:45:37;;;;;;;4.28;1.38;;;;;;;;;;4907246;29;20039;-80
2023/09/22 01:48:03;;;;;;;2.95;1.60;;;15.00;99.90;;;;;;4922095;29;20032;-82
2023/09/22 01:50:29;;;;;;;3.88;1.45;;;;;;;;;;4909106;29;20036;-83
2023/09/22 01:52:55;;;;;;;4.63;1.85;;;;;;;;;;4904510;29;20020;-83
2023/09/22 01:55:22;;;;;;;4.72;1.63;;;;;;;;;;4905435;29;20035;-84
2023/09/22 01:57:50;;;;;;;2.65;1.25;;;14.90;99.90;;;;;;4922296;29;20039;-82
2023/09/22 02:00:18;;;;;;;2.70;1.52;;;;;;;;;;4904286;29;20028;-83
2023/09/22 02:02:45;;;;;;;2.67;1.40;;;14.90;99.90;;;;;;4905983;29;20024;-82
2023/09/22 02:05:17;;;;;;;3.13;1.50;;;14.90;99.90;;;;;;4922729;29;20032;-87
2023/09/22 02:07:43;;;;;;;4.03;2.47;;;15.00;99.90;;;;;;4925563;29;20473;-82
2023/09/22 02:10:10;;;;;;;3.13;1.30;;;14.80;99.90;;;;;;4911041;29;20038;-80
2023/09/22 02:12:40;;;;;;;2.70;1.20;;;14.90;99.90;;;;;;4910375;29;20028;-81
2023/09/22 02:15:10;;;;;;;3.53;1.10;;;14.80;99.90;;;;;;4924509;29;20024;-84
2023/09/22 02:17:37;;;;;;;2.20;1.13;;;14.80;99.90;;;;;;4911156;29;20048;-86
2023/09/22 02:20:09;;;;;;;3.35;1.10;;;14.70;99.90;;;;;;4925051;29;20036;-82
2023/09/22 02:22:35;;;;;;;3.22;1.17;;;14.70;99.90;;;;;;4924062;29;20488;-83
2023/09/22 02:25:02;;;;;;;2.78;1.40;;;;;;;;;;4905884;29;21914;-82
2023/09/22 02:27:27;;;;;;;3.35;1.10;;;14.60;99.90;;;;;;4919872;29;20036;-81
2023/09/22 02:29:53;;;;;;;4.95;1.73;;;14.60;99.90;;;;;;4908750;29;20024;-82
2023/09/22 02:32:18;;;;;;;2.45;1.30;;;14.60;99.90;;;;;;4903697;29;20055;-83
2023/09/22 02:34:44;;;;;;;3.15;1.30;;;14.60;99.90;;;;;;4910823;29;20036;-84
2023/09/22 02:37:10;;;;;;;3.38;1.13;;;;;;;;;;4907715;29;20035;-83
2023/09/22 02:39:36;;;;;;;2.67;1.30;;;;;;;;;;4925295;29;20144;-84
2023/09/22 02:42:02;;;;;;;3.30;1.00;;;14.50;99.90;;;;;;4926356;29;20496;-86
2023/09/22 02:44:30;;;;;;;4.47;1.13;;;14.50;99.90;;;;;;4923374;29;20067;-85
2023/09/22 02:46:56;;;;;;;5.70;1.38;;;;;;;;;;4907403;29;20027;-86
2023/09/22 02:49:22;;;;;;;4.32;1.35;;;14.50;99.90;;;;;;4919092;29;20032;-86
2023/09/22 02:51:48;;;;;;;1.73;1.20;;;14.50;99.90;;;;;;4907416;29;20050;-83
2023/09/22 02:54:14;;;;;;;2.72;1.30;;;14.50;99.90;;;;;;4906903;29;20097;-84
2023/09/22 02:56:40;;;;;;;3.22;1.13;;;;;;;;;;4919208;29;20020;-82
2023/09/22 02:59:05;;;;;;;3.63;1.20;;;14.40;99.90;;;;;;4908077;29;20024;-84
2023/09/22 03:01:33;;;;;;;5.32;1.20;;;;;;;;;;4921138;29;20139;-83
2023/09/22 03:03:59;;;;;;;1.98;0.90;;;;;;;;;;4921370;29;20024;-83
2023/09/22 03:06:25;;;;;;;3.38;1.10;;;;;;;;;;4907641;29;20503;-86
2023/09/22 03:08:51;;;;;;;3.75;1.30;;;;;;;;;;4922391;29;20035;-84
2023/09/22 03:11:17;;;;;;;2.90;1.30;;;;;;;;;;4918979;28;20036;-84
2023/09/22 03:13:42;;;;;;;2.53;1.40;;;14.40;99.90;;;;;;4912452;29;20024;-80
2023/09/22 03:16:08;;;;;;;3.08;1.17;;;;;;;;;;4927290;29;20028;-81
2023/09/22 03:18:35;;;;;;;2.83;1.13;;;;;;;;;;4924635;29;20036;-83
2023/09/22 03:21:02;;;;;;;3.45;1.00;;;;;;;;;;4913809;29;20028;-80
2023/09/22 03:23:28;;;;;;;2.25;1.10;;;14.40;99.90;;;;;;4924486;29;20531;-79
2023/09/22 03:25:54;;;;;;;3.05;1.17;;;;;;;;;;4909237;29;20043;-81
2023/09/22 03:28:20;;;;;;;1.50;1.00;;;;;;;;;;4925683;29;20029;-85
2023/09/22 03:30:46;;;;;;;2.67;1.10;;;14.50;99.90;;;;;;4912339;29;20036;-83
2023/09/22 03:33:11;;;;;;;2.25;0.82;;;14.50;99.90;;;;;;4914655;29;20028;-82
2023/09/22 03:35:38;;;;;;;2.67;1.20;;;14.50;99.90;;;;;;4915985;29;20028;-80
2023/09/22 03:38:05;;;;;;;2.45;1.10;;;14.50;99.90;;;;;;4915068;29;20036;-83
2023/09/22 03:40:32;;;;;;;2.70;1.17;;;;;;;;;;4931725;29;20027;-84
2023/09/22 03:43:01;;;;;;;2.90;1.20;;;14.60;99.90;;;;;;4917218;29;20032;-83
2023/09/22 03:45:27;;;;;;;3.75;1.10;;;;;;;;;;4908435;29;20037;-82
2023/09/22 03:47:53;;;;;;;2.78;1.02;;;14.60;99.90;;;;;;4913290;29;20020;-84
2023/09/22 03:50:18;;;;;;;1.85;1.10;;;14.60;99.90;;;;;;4915040;29;20035;-87
2023/09/22 03:52:45;;;;;;;2.05;1.05;;;;;;;;;;4932115;29;20397;-84
2023/09/22 03:55:12;;;;;;;2.63;1.52;;;14.60;99.90;;;;;;4927568;29;20480;-84
2023/09/22 03:57:38;;;;;;;3.30;1.10;;;14.60;99.90;;;;;;4910960;29;20734;-86
2023/09/22 04:00:07;;;;;;;11.27;1.83;;;14.60;99.90;;;;;;4928399;29;20095;-86
2023/09/22 04:02:33;;;;;;;1.77;1.20;;;;;;;;;;4911974;29;20031;-85
2023/09/22 04:05:00;;;;;;;1.77;1.08;;;;;;;;;;4923757;29;20080;-84
2023/09/22 04:07:26;;;;;;;3.33;0.95;;;;;;;;;;4923789;29;20031;-83
2023/09/22 04:09:51;;;;;;;1.95;1.13;;;14.60;99.90;;;;;;4908607;29;20032;-83
2023/09/22 04:12:17;;;;;;;3.65;1.17;;;14.60;99.90;;;;;;4907149;29;20652;-85
2023/09/22 04:14:43;;;;;;;4.93;2.00;;;14.60;99.90;;;;;;4928686;29;20028;-84
2023/09/22 04:17:09;;;;;;;2.33;1.10;;;;;;;;;;4911283;29;20028;-81
2023/09/22 04:19:36;;;;;;;4.32;1.15;;;;;;;;;;4930268;29;20043;-83
2023/09/22 04:22:03;;;;;;;4.82;1.25;;;;;;;;;;4928914;29;20075;-85
2023/09/22 04:24:32;;;;;;;4.07;1.48;;;;;;;;;;4909358;29;20449;-82
2023/09/22 04:27:09;;;;;;;1.52;1.05;;;14.70;99.90;;;;;;4913375;29;20063;-83
2023/09/22 04:29:38;;;;;;;2.10;1.20;;;;;;;;;;4914530;29;20036;-84
2023/09/22 04:32:07;;;;;;;2.33;1.33;;;14.70;99.90;;;;;;4913153;29;20034;-84
2023/09/22 04:34:33;;;;;;;3.45;1.20;;;14.90;99.90;;;;;;4930837;29;20100;-83
2023/09/22 04:37:02;;;;;;;2.50;1.33;;;14.70;99.90;;;;;;4916499;29;20500;-83
2023/09/22 04:39:31;;;;;;;1.90;1.20;;;;;;;;;;4932211;29;20044;-85
2023/09/22 04:41:57;;;;;;;2.47;1.40;;;;;;;;;;4915524;29;20477;-85
2023/09/22 04:44:23;;;;;;;3.78;1.40;;;;;;;;;;4928085;29;20039;-81
2023/09/22 04:46:49;;;;;;;2.13;1.13;;;;;;;;;;4928931;29;20028;-82
2023/09/22 04:49:15;;;;;;;2.17;1.40;;;14.70;99.90;;;;;;4925665;29;20024;-85
2023/09/22 04:51:42;;;;;;;4.28;1.58;;;;;;;;;;4929924;29;20032;-84
2023/09/22 04:54:08;;;;;;;4.15;1.30;;;;;;;;;;4917879;29;20024;-82
2023/09/22 04:56:34;;;;;;;5.50;1.55;;;;;;;;;;4913986;29;20056;-86
2023/09/22 04:59:00;;;;;;;3.25;1.50;;;;;;;;;;4925678;29;23455;-84
2023/09/22 05:01:28;;;;;;;6.43;1.77;;;;;;;;;;4923834;29;20047;-87
2023/09/22 05:03:54;;;;;;;4.45;1.55;;;;;;;;;;4927174;29;20033;-85
2023/09/22 05:06:20;;;;;;;2.42;1.30;;;;;;;;;;4909159;29;20040;-89
2023/09/22 05:08:46;;;;;;;5.43;1.83;;;;;;;;;;4920313;29;20040;-83
2023/09/22 05:11:12;;;;;;;2.67;1.35;;;;;;;;;;4928873;29;20028;-83
2023/09/22 05:13:38;;;;;;;2.58;1.40;;;;;;;;;;4919833;29;20024;-83
2023/09/22 05:16:12;;;;;;;3.25;1.42;;;14.70;99.90;;;;;;4921251;29;20477;-84
2023/09/22 05:18:38;;;;;;;5.97;1.52;;;;;;;;;;4920792;29;20039;-85
2023/09/22 05:21:05;;;;;;;4.05;1.40;;;;;;;;;;4918323;29;20028;-84
2023/09/22 05:23:34;;;;;;;3.28;1.42;;;;;;;;;;4920886;29;20410;-80
2023/09/22 05:26:06;;;;;;;5.07;1.70;;;14.60;99.90;;;;;;4934884;29;20020;-83
2023/09/22 05:28:32;;;;;;;3.30;1.58;;;;;;;;;;4914757;29;20300;-82
2023/09/22 05:30:58;;;;;;;6.07;3.55;;;;;;;;;;4925385;29;20096;-80
2023/09/22 05:33:24;;;;;;;3.63;1.50;;;;;;;;;;4920867;29;20648;-83
2023/09/22 05:35:50;;;;;;;2.40;1.25;;;14.70;99.90;;;;;;4916995;29;20115;-83
2023/09/22 05:38:17;;;;;;;4.53;1.30;;;14.70;99.90;;;;;;4917071;29;20051;-84
2023/09/22 05:40:43;;;;;;;4.13;1.45;;;;;;;;;;4918134;29;20028;-85
2023/09/22 05:43:14;;;;;;;4.55;1.30;;;14.60;99.90;;;;;;4920343;29;20051;-82
2023/09/22 05:45:41;;;;;;;4.20;1.40;;;;;;;;;;4920157;29;20032;-86
2023/09/22 05:48:10;;;;;;;3.70;1.50;;;;;;;;;;4928376;29;20031;-84
2023/09/22 05:50:36;;;;;;;3.63;1.42;;;;;;;;;;4934821;29;20040;-84
2023/09/22 05:53:05;;;;;;;5.85;2.00;;;;;;;;;;4926646;29;20048;-84
2023/09/22 05:55:33;;;;;;;4.68;1.55;;;14.60;99.90;;;;;;4940398;28;20234;-85
2023/09/22 05:57:59;;;;;;;4.45;1.20;;;;;;;;;;4927920;29;20036;-83
2023/09/22 06:00:31;;;;;;;5.45;1.30;;;;;;;;;;4934096;29;20074;-83
2023/09/22 06:02:57;;;;;;;3.00;1.13;;;;;;;;;;4922910;29;20039;-85
2023/09/22 06:05:23;;;;;;;2.78;1.00;;;;;;;;;;4926587;29;20057;-84
2023/09/22 06:07:50;;;;;;;4.13;1.15;;;14.70;99.90;;;;;;4941947;29;20028;-83
2023/09/22 06:10:16;;;;;;;2.22;1.00;;;;;;;;;;4946649;29;20115;-86
2023/09/22 06:12:42;;;;;;;4.03;1.38;;;;;;;;;;4922996;29;20028;-87
2023/09/22 06:15:12;;;;;;;3.50;1.05;;;;;;;;;;4922924;29;20027;-88
2023/09/22 06:17:38;;;;;;;2.58;1.10;;;;;;;;;;4923337;29;20029;-83
2023/09/22 06:20:15;;;;;;;3.13;1.25;;;;;;;;;;4903355;29;20150;-87
2023/09/22 06:22:47;;;;;;;2.03;0.98;;;;;;;;;;4902182;29;20401;-87
2023/09/22 06:25:14;;;;;;;6.10;1.10;;;;;;;;;;4906165;29;20047;-87
2023/09/22 06:27:43;;;;;;;5.20;1.05;;;;;;;;;;4921253;29;20093;-87
2023/09/22 06:30:13;;;;;;;2.45;1.10;;;;;;;;;;4916995;29;20102;-86
2023/09/22 06:32:40;;;;;;;4.03;0.93;;;;;;;;;;4919945;29;20474;-86
2023/09/22 06:35:07;;;;;;;4.70;0.90;;;;;;;;;;4922780;29;20036;-85
2023/09/22 06:37:34;;;;;;;5.25;1.10;;;;;;;;;;4936821;29;20032;-85
2023/09/22 06:40:00;;;;;;;3.03;0.90;;;;;;;;;;4921805;29;20363;-86
2023/09/22 06:42:26;;;;;;;4.72;1.10;;;;;;;;;;4936562;29;20043;-87
2023/09/22 06:44:53;;;;;;;3.55;1.15;;;;;;;;;;4922114;29;20036;-88
2023/09/22 06:47:20;;;;;;;5.60;0.98;;;;;;;;;;4921354;29;20039;-87
2023/09/22 06:49:46;;;;;;;6.78;1.02;;;;;;;;;;4922434;29;20485;-87
2023/09/22 06:52:12;;;;;;;4.10;1.42;;;;;;;;;;4922475;29;20032;-84
2023/09/22 06:54:38;;;;;;;6.97;1.23;;;;;;;;;;4921489;29;20047;-87
2023/09/22 06:57:05;;;;;;;6.80;1.15;;;;;;;;;;4923711;29;20079;-86
2023/09/22 06:59:37;;;;;;;5.32;1.00;;;;;;;;;;4924106;29;20035;-84
2023/09/22 07:02:03;;;;;;;5.97;1.15;;;;;;;;;;4923238;29;20030;-85
2023/09/22 07:04:32;;;;;;;4.40;1.40;;;;;;;;;;4920184;29;20029;-85
2023/09/22 07:07:00;;;;;;;4.90;1.50;;;;;;;;;;4919961;29;20109;-84
2023/09/22 07:09:27;;;;;;;6.10;1.30;;;;;;;;;;4920268;29;20052;-86
2023/09/22 07:11:53;;;;;;;5.57;1.52;;;;;;;;;;4918551;29;20024;-84
2023/09/22 07:14:19;;;;;;;11.15;1.50;;;;;;;;;;4923337;29;20039;-85
2023/09/22 07:16:46;;;;;;;2.55;1.10;;;;;;;;;;4922896;29;20047;-87
2023/09/22 07:19:12;;;;;;;4.88;1.20;;;;;;;;;;4922365;29;20048;-87
2023/09/22 07:21:42;;;;;;;5.18;1.02;;;;;;;;;;4922373;29;20040;-86
2023/09/22 07:24:15;;;;;;;10.10;2.00;;;;;;;;;;4926095;29;20020;-87
2023/09/22 07:26:42;;;;;;;7.15;1.33;;;;;;;;;;4929104;29;20071;-86
2023/09/22 07:29:12;;;;;;;5.93;1.23;;;;;;;;;;4931770;29;20393;-85
2023/09/22 07:31:45;;;;;;;8.10;1.45;;;;;;;;;;4937677;29;20024;-87
2023/09/22 08:00:10;;;;;;;7.70;1.63;;;15.70;99.90;;;;;;4942594;29;20052;-89
2023/09/22 08:02:36;;;;;;;15.20;2.08;;;;;;;;;;4943172;29;20030;-88
2023/09/22 08:05:02;;;;;;;5.00;1.45;;;15.70;99.90;;;;;;4956504;28;20047;-87
2023/09/22 08:07:28;;;;;;;7.78;1.77;;;;;;;;;;4941059;29;20035;-86
2023/09/22 08:09:54;;;;;;;5.20;1.13;;;;;;;;;;4925729;29;20028;-87
2023/09/22 08:12:20;;;;;;;6.68;1.40;;;;;;;;;;4926335;29;20021;-87
2023/09/22 08:14:46;;;;;;;5.03;1.00;;;;;;;;;;4925861;29;20071;-86
2023/09/22 08:17:12;;;;;;;6.22;1.30;;;;;;;;;;4926221;29;20087;-86
2023/09/22 08:19:38;;;;;;;5.75;1.23;;;;;;;;;;4926864;29;20032;-87
2023/09/22 08:22:04;;;;;;;5.18;1.10;;;;;;;;;;4925160;29;20020;-86
2023/09/22 08:24:30;;;;;;;8.30;1.40;;;;;;;;;;4926141;29;20103;-89
2023/09/22 08:26:59;;;;;;;6.28;1.60;;;;;;;;;;4925579;29;20053;-88
2023/09/22 08:29:25;;;;;;;4.78;1.00;;;;;;;;;;4924289;29;20040;-87
2023/09/22 08:31:51;;;;;;;4.18;1.08;;;;;;;;;;4925043;29;20492;-86
2023/09/22 08:34:17;;;;;;;4.80;1.00;;;;;;;;;;4924280;29;20028;-88
2023/09/22 08:36:43;;;;;;;9.60;1.48;;;;;;;;;;4924288;29;20060;-87
2023/09/22 08:39:09;;;;;;;4.78;0.98;;;;;;;;;;4924597;29;20036;-88
2023/09/22 08:41:39;;;;;;;9.57;3.97;;;;;;;;;;4938942;29;20052;-88
2023/09/22 08:44:08;;;;;;;5.20;1.20;;;;;;;;;;4939465;29;20039;-90
2023/09/22 08:46:35;;;;;;;3.58;1.38;;;;;;;;;;4939412;29;20020;-90
2023/09/22 08:49:02;;;;;;;8.98;3.10;;;;;;;;;;4925296;29;20032;-88
2023/09/22 08:51:28;;;;;;;4.60;1.30;;;;;;;;;;4939449;29;20032;-87
2023/09/22 08:53:55;;;;;;;3.20;1.30;;;;;;;;;;4924461;29;20020;-89
2023/09/22 08:56:24;;;;;;;5.63;1.85;;;;;;;;;;4908332;29;20032;-87
2023/09/22 08:58:51;;;;;;;5.07;1.60;;;;;;;;;;4906294;29;20036;-86
2023/09/22 09:01:17;;;;;;;4.63;1.50;;;;;;;;;;4906688;29;20269;-87
2023/09/22 09:03:44;;;;;;;7.13;1.30;;;;;;;;;;4906268;29;20037;-86
2023/09/22 09:06:14;;;;;;;6.28;1.33;;;;;;;;;;4906829;29;20106;-89
2023/09/22 09:08:40;;;;;;;3.83;1.30;;;;;;;;;;4904544;29;20056;-85
2023/09/22 09:11:10;;;;;;;5.68;1.58;;;;;;;;;;4905026;29;20037;-85
2023/09/22 09:13:37;;;;;;;;;;;17.90;99.90;;;;;;4905343;29;20058;-87
2023/09/22 09:16:08;;;;;;;4.75;1.33;;;;;;;;;;4920623;29;19911;-86
2023/09/22 09:18:34;;;;;;;5.57;1.25;;;;;;;;;;4905137;29;20028;-87
2023/09/22 09:21:10;;;;;;;4.43;1.23;;;;;;;;;;4904905;29;20028;-84
2023/09/22 09:23:36;;;;;;;4.97;1.20;;;;;;;;;;4904669;29;20478;-88
2023/09/22 09:26:02;;;;;;;3.72;1.08;;;;;;;;;;4904504;29;20041;-83
2023/09/22 09:28:31;;;;;;;5.85;1.00;;;18.40;99.90;;;;;;4905057;29;20043;-86
2023/09/22 09:30:58;;;;;;;3.78;1.30;;;;;;;;;;4920469;29;20096;-88
2023/09/22 09:33:25;;;;;;;4.47;1.20;;;18.70;99.90;;;;;;4912164;29;20048;-83
2023/09/22 09:35:51;;;;;;;4.05;1.00;;;;;;;;;;4923393;29;20024;-89
2023/09/22 09:38:18;;;;;;;4.63;1.40;;;;;;;;;;4924256;29;20056;-84
2023/09/22 09:40:44;;;;;;;4.50;1.27;;;;;;;;;;4924805;29;20032;-86
2023/09/22 09:43:14;;;;;;;10.48;4.60;;;18.80;99.90;;;;;;4923835;29;20449;-84
2023/09/22 09:45:49;;;;;;;3.47;1.73;;;18.60;99.90;;;;;;4939571;29;20066;-88
2023/09/22 09:48:18;;;;;;;3.72;1.40;;;18.40;99.90;;;;;;4939241;29;20024;-86
2023/09/22 09:50:52;;;;;;;4.30;1.30;;;18.10;99.90;;;;;;4939768;29;20504;-86
2023/09/22 09:53:36;;;;;;;5.95;2.08;;;18.10;99.90;;;;;;4939480;29;20028;-86
2023/09/22 09:56:05;;;;;;;2.95;1.30;;;18.00;99.90;;;;;;4921594;29;20032;-87
2023/09/22 09:58:32;;;;;;;4.22;1.25;;;;;;;;;;4928062;29;20033;-86
2023/09/22 10:00:58;;;;;;;5.25;1.55;;;;;;;;;;4924207;29;20099;-85
2023/09/22 10:03:25;;;;;;;4.35;1.27;;;;;;;;;;4924062;29;20618;-88
2023/09/22 10:05:52;;;;;;;4.55;1.35;;;;;;;;;;4922293;29;20032;-85
2023/09/22 10:08:21;;;;;;;6.05;1.52;;;;;;;;;;4923988;29;20032;-87
2023/09/22 10:10:51;;;;;;;6.05;1.70;;;;;;;;;;4922303;29;20020;-87
2023/09/22 10:13:21;;;;;;;4.43;1.20;;;;;;;;;;4923048;29;20039;-86
2023/09/22 10:16:04;;;;;;;4.90;1.30;;;17.80;99.90;;;;;;4924650;29;20208;-86
2023/09/22 10:18:45;;;;;;;9.02;1.85;;;;;;;;;;4938109;29;20031;-86
2023/09/22 10:21:30;;;;;;;5.15;1.27;;;;;;;;;;4922913;29;20047;-87
2023/09/22 10:24:15;;;;;;;4.43;1.50;;;;;;;;;;4909165;29;20029;-90
2023/09/22 10:26:56;;;;;;;6.53;1.40;;;;;;;;;;4928065;29;20036;-85
2023/09/22 10:29:34;;;;;;;3.83;1.30;;;;;;;;;;4932687;29;20104;-87
2023/09/22 10:32:18;;;;;;;7.15;1.80;;;18.70;99.90;;;;;;4926340;29;20020;-85
2023/09/22 10:34:44;;;;;;;4.70;1.55;;;;;;;;;;4924996;29;20176;-86
2023/09/22 10:37:10;;;;;;;7.30;2.13;;;;;;;;;;4923762;29;20032;-87
2023/09/22 10:39:52;;;;;;;4.35;1.35;;;19.10;99.90;;;;;;4922833;29;20032;-83
2023/09/22 10:42:19;;;;;;;3.33;1.38;;;;;;;;;;4920748;29;20032;-87
2023/09/22 10:44:59;;;;;;;4.82;1.40;;;19.40;99.90;;;;;;4920376;29;20028;-86
2023/09/22 10:47:37;;;;;;;;;;;19.50;99.90;;;;;;4919597;29;20115;-86
2023/09/22 10:50:33;;;;;;;4.10;1.13;;;19.60;99.90;;;;;;4925362;29;19914;-88
2023/09/22 10:53:01;;;;;;;3.75;1.02;;;;;;;;;;4954638;29;20036;-87
2023/09/22 10:55:39;;;;;;;3.72;1.25;;;19.60;99.90;;;;;;4940553;29;20042;-89
2023/09/22 10:58:14;;;;;;;3.97;1.40;;;19.50;99.90;;;;;;4943553;28;20042;-88
2023/09/22 11:00:53;;;;;;;3.95;1.33;;;19.60;99.90;;;;;;4939895;29;20024;-87
2023/09/22 11:03:20;;;;;;;4.55;1.73;;;;;;;;;;4942945;29;20079;-87
2023/09/22 11:05:56;;;;;;;5.38;1.67;;;;;;;;;;4943829;29;20033;-88
2023/09/22 11:08:23;;;;;;;4.10;1.27;;;;;;;;;;4943870;29;20079;-89
2023/09/22 11:10:50;;;;;;;5.90;1.30;;;19.80;99.90;;;;;;4927303;29;20036;-87
2023/09/22 11:13:16;;;;;;;3.17;1.38;;;19.90;99.90;;;;;;4941650;29;20028;-85
2023/09/22 11:15:48;;;;;;;4.38;1.27;;;19.90;99.90;;;;;;4925027;29;20063;-87
2023/09/22 11:18:23;;;;;;;4.10;1.38;;;19.90;99.90;;;;;;4924597;29;20065;-86
2023/09/22 11:20:49;;;;;;;6.07;1.60;;;;;;;;;;4923358;29;20036;-82
2023/09/22 11:23:16;;;;;;;3.00;1.08;;;20.30;99.90;;;;;;4940419;29;20044;-86
2023/09/22 11:25:42;;;;;;;4.00;1.00;;;;;;;;;;4932617;29;20039;-86
2023/09/22 11:28:08;;;;;;;5.88;1.50;;;;;;;;;;4938492;29;20028;-87
2023/09/22 11:30:34;;;;;;;4.72;1.38;;;;;;;;;;4940111;29;20035;-89
2023/09/22 11:33:00;;;;;;;5.00;1.40;;;;;;;;;;4943966;29;20029;-86
2023/09/22 11:35:29;;;;;;;4.07;1.40;;;;;;;;;;4942029;29;20163;-86
2023/09/22 11:37:55;;;;;;;2.38;1.35;;;;;;;;;;4943102;29;20032;-84
2023/09/22 11:40:22;;;;;;;5.63;1.50;;;;;;;;;;4943449;29;20051;-84
2023/09/22 11:42:49;;;;;;;3.45;1.25;;;;;;;;;;4944081;29;20032;-84
2023/09/22 11:45:24;;;;;;;2.33;0.98;;;;;;;;;;4943209;29;20028;-89
2023/09/22 11:48:03;;;;;;;3.30;1.30;;;20.80;99.70;;;;;;4929828;29;20036;-89
2023/09/22 11:50:35;;;;;;;3.10;1.30;;;;;;;;;;4940874;29;20032;-85
2023/09/22 11:53:09;;;;;;;3.78;0.95;;;;;;;;;;4935960;29;20061;-85
2023/09/22 11:55:35;;;;;;;3.40;1.20;;;;;;;;;;4939556;29;20043;-86
2023/09/22 11:58:01;;;;;;;3.63;1.13;;;;;;;;;;4927442;29;20092;-87
2023/09/22 12:00:28;;;;;;;3.97;1.10;;;;;;;;;;4930088;29;20032;-85
2023/09/22 12:02:54;;;;;;;4.65;1.35;;;;;;;;;;4926640;29;20121;-89
2023/09/22 12:05:20;;;;;;;2.88;1.00;;;;;;;;;;4924109;29;20028;-87
2023/09/22 12:07:46;;;;;;;3.33;0.88;;;;;;;;;;4939624;29;20031;-89
2023/09/22 12:10:12;;;;;;;2.97;1.10;;;;;;;;;;4940643;29;20028;-85
2023/09/22 12:12:39;;;;;;;3.63;1.13;;;;;;;;;;4940384;29;20142;-89
2023/09/22 12:27:59;;;;;;;2.63;1.00;;;;;;;;;;4936624;28;20027;-89
2023/09/22 12:30:25;;;;;;;4.35;1.20;;;;;;;;;;4938710;28;20040;-88
2023/09/22 12:32:51;;;;;;;2.88;1.00;;;;;;;;;;4937894;28;20020;-89
2023/09/22 12:35:17;;;;;;;4.15;1.42;;;20.40;99.90;;;;;;4932469;28;20044;-90
2023/09/22 12:37:43;;;;;;;5.18;1.55;;;;;;;;;;4929557;29;20034;-90
2023/09/22 12:40:09;;;;;;;7.00;2.08;;;;;;;;;;4927748;29;20039;-90
2023/09/22 12:42:37;;;;;;;2.90;0.80;;;;;;;;;;4920372;29;20043;-89
2023/09/22 12:45:04;;;;;;;3.42;1.08;;;;;;;;;;4925061;29;20067;-85
2023/09/22 12:47:30;;;;;;;5.80;1.40;;;;;;;;;;4928272;29;20040;-88
2023/09/22 12:49:56;;;;;;;4.40;1.10;;;;;;;;;;4934094;29;20055;-88
2023/09/22 12:52:22;;;;;;;2.67;1.05;;;;;;;;;;4930590;29;20091;-89
2023/09/22 12:54:48;;;;;;;4.18;0.95;;;;;;;;;;4947628;29;20052;-88
2023/09/22 12:57:14;;;;;;;3.55;0.98;;;;;;;;;;4929567;29;20036;-88
2023/09/22 12:59:40;;;;;;;6.07;1.25;;;;;;;;;;4928406;29;20055;-87
2023/09/22 13:02:08;;;;;;;3.15;1.00;;;;;;;;;;4927434;29;20028;-89
2023/09/22 13:04:34;;;;;;;3.00;0.82;;;;;;;;;;4923159;29;20072;-89
2023/09/22 13:07:00;;;;;;;4.30;1.70;;;;;;;;;;4941825;29;20584;-89
2023/09/22 13:09:29;;;;;;;6.40;1.25;;;20.80;98.50;;;;;;4926825;29;20030;-89
2023/09/22 13:11:55;;;;;;;3.00;0.93;;;;;;;;;;4937260;29;20083;-89
2023/09/22 13:14:21;;;;;;;4.18;1.00;;;;;;;;;;4921811;29;20036;-89
2023/09/22 13:16:49;;;;;;;6.10;1.42;;;21.00;98.20;;;;;;4923759;29;20398;-89
2023/09/22 13:19:15;;;;;;;3.85;1.30;;;;;;;;;;4941373;29;20028;-90
2023/09/22 13:21:50;;;;;;;2.85;1.00;;;;;;;;;;4916746;29;20103;-88
2023/09/22 13:24:16;;;;;;;3.05;0.88;;;;;;;;;;4920271;29;20056;-90
2023/09/22 13:26:43;;;;;;;3.42;0.82;;;;;;;;;;4916931;29;20035;-89
2023/09/22 13:29:09;;;;;;;8.45;2.03;;;;;;;;;;4917093;29;20063;-88
2023/09/22 13:31:35;;;;;;;4.80;1.23;;;;;;;;;;4915702;29;20043;-89
2023/09/22 13:34:01;;;;;;;2.78;0.82;;;;;;;;;;4917958;29;20028;-89
2023/09/22 13:36:27;;;;;;;5.47;1.10;;;;;;;;;;4918906;29;20024;-88
2023/09/22 13:38:53;;;;;;;3.10;0.82;;;;;;;;;;4935181;28;20509;-90
2023/09/22 13:41:19;;;;;;;4.18;0.98;;;;;;;;;;4914098;29;20040;-90
2023/09/22 13:43:45;;;;;;;4.82;1.40;;;;;;;;;;4919154;29;20032;-88
2023/09/22 13:46:15;;;;;;;3.17;0.88;;;20.70;98.00;;;;;;4917513;29;20028;-88
2023/09/22 13:48:41;;;;;;;3.75;1.30;;;;;;;;;;4922633;29;20020;-89
2023/09/22 13:51:08;;;;;;;5.22;1.30;;;;;;;;;;4932268;29;20055;-89
2023/09/22 13:53:35;;;;;;;4.00;1.23;;;20.50;98.10;;;;;;4922891;29;20146;-89
2023/09/22 13:56:04;;;;;;;4.32;1.10;;;;;;;;;;4922619;29;20051;-87
2023/09/22 13:58:30;;;;;;;3.10;1.00;;;;;;;;;;4935142;29;20071;-89
2023/09/22 14:00:58;;;;;;;2.65;1.10;;;;;;;;;;4920495;29;20032;-89
2023/09/22 14:03:24;;;;;;;4.82;0.98;;;;;;;;;;4922915;29;20813;-91
2023/09/22 14:05:50;;;;;;;3.03;1.10;;;;;;;;;;4921599;29;20032;-86
2023/09/22 14:08:16;;;;;;;2.78;0.95;;;;;;;;;;4919950;29;20503;-88
2023/09/22 14:10:42;;;;;;;2.25;1.00;;;;;;;;;;4921711;29;20020;-87
2023/09/22 14:13:08;;;;;;;2.97;1.00;;;;;;;;;;4925693;29;20031;-88
2023/09/22 14:15:35;;;;;;;4.18;1.23;;;;;;;;;;4919486;29;20036;-89
2023/09/22 14:18:02;;;;;;;5.35;0.95;;;;;;;;;;4925260;29;20078;-86
2023/09/22 14:20:47;;;;;;;3.97;1.15;;;;;;;;;;4926029;29;20020;-87
2023/09/22 14:23:13;;;;;;;4.60;1.38;;;;;;;;;;4943231;29;20048;-90
2023/09/22 14:25:39;;;;;;;5.53;1.55;;;;;;;;;;4925203;29;20039;-87
2023/09/22 14:28:05;;;;;;;3.75;1.10;;;;;;;;;;4924268;29;20466;-87
2023/09/22 14:30:32;;;;;;;6.25;1.40;;;;;;;;;;4922755;29;20063;-87
2023/09/22 14:32:58;;;;;;;3.78;1.10;;;;;;;;;;4937691;29;20020;-87
2023/09/22 14:35:26;;;;;;;5.10;1.60;;;;;;;;;;4925790;29;20031;-88
2023/09/22 14:38:23;;;;;;;5.55;1.02;;;;;;;;;;4924160;29;20122;-88
2023/09/22 14:40:50;;;;;;;3.05;0.90;;;;;;;;;;4917016;29;20052;-86
2023/09/22 14:43:16;;;;;;;4.32;1.27;;;;;;;;;;4935352;29;20028;-87
2023/09/22 14:45:42;;;;;;;3.85;1.20;;;;;;;;;;4921921;29;20040;-88
2023/09/22 14:48:08;;;;;;;7.50;1.33;;;;;;;;;;4923667;29;20027;-87